This is the latest recevied weather packets stored in our database for station/object MMMX. If no packets are shown the sender has not sent any weather packets the latest 10 day(s).
| Time | Temp. | Humidity | Pressure | Rain* | Wind** | Luminosity | Snow |
|---|---|---|---|---|---|---|---|
| 1778275422 | 20° C | 56% | 1021 hPa | - | - | - | - |
| 1778274821 | 17.78° C | 67% | 1021.3 hPa | - | - | - | - |
| 1778274221 | 15.56° C | 77% | 1022 hPa | - | - | - | - |
| 1778273626 | 15.56° C | 77% | 1012.9 hPa | - | - | - | - |
| 1778273019 | 17.78° C | 63% | 1022.4 hPa | - | - | - | - |
| 1778272424 | 20° C | 60% | 1013.9 hPa | - | - | - | - |
| 1778271819 | 25.56° C | 29% | 1013.9 hPa | - | - | - | - |
| 1778271222 | 26.67° C | 26% | 1021 hPa | - | - | - | - |
| 1778270620 | 26.67° C | 26% | 1013.9 hPa | - | - | - | - |
| 1778270020 | 27.78° C | 24% | 1021.7 hPa | - | - | - | - |
| 1778269422 | 27.78° C | 24% | 1021.7 hPa | - | - | - | - |
| 1778268820 | 27.78° C | 24% | 1021.7 hPa | - | - | - | - |
| 1778268223 | 27.78° C | 26% | 1022.4 hPa | - | - | - | - |
| 1778267623 | 27.78° C | 26% | 1022.4 hPa | - | - | - | - |
| 1778267025 | 27.78° C | 26% | 1022.4 hPa | - | - | - | - |
| 1778266421 | 26.67° C | 28% | 1023.4 hPa | - | - | - | - |
| 1778265826 | 26.67° C | 28% | 1023.4 hPa | - | - | - | - |
| 1778265224 | 26.67° C | 28% | 1023.4 hPa | - | - | - | - |
| 1778264619 | 26.67° C | 28% | 1023.4 hPa | - | - | - | - |
| 1778264021 | 26.67° C | 28% | 1023.4 hPa | - | - | - | - |
| 1778263421 | 26.67° C | 28% | 1023.4 hPa | - | - | - | - |
| 1778262823 | 25.56° C | 29% | 1024 hPa | - | - | - | - |
| 1778262218 | 25.56° C | 29% | 1024 hPa | - | - | - | - |
| 1778261623 | 25.56° C | 29% | 1024 hPa | - | - | - | - |
| 1778261022 | 25.56° C | 29% | 1024 hPa | - | - | - | - |
* Rain since midnight (hover to see other rain measurements)
** Current wind speed in m/s (hover to see current wind gust speed)